Mojave, California
Current Conditions -  °F | °C
As of 12:35 AM on Saturday 29 Nov 2014 (Local Time) from KMHV Reporting Station
Clear Clear  
Wind Chill: 50°   Ceiling: Unl
Heat Index: 50°   Visibility: 10mi
Dew Point: 12°   Wind: 7mph
Humidity: 22%   Direction: 280°W
Pressure: 29.92"   Gusts: NA
Location:  35.05°N, 118.15°W
Report Text: KMHV 290835Z AUTO 28006KT 10SM CLR 10/M11 A2992 RMK AO1
Loading
Personal Weather Stations






























Interactive Weather Map New forecast layout! Learn more

10-Day Weather Forecast

Advertisements
Track Severe Weather on mobile